createdAt,value
2018-12-21T00:00:03.264Z,119.10
2018-12-21T00:03:07.708Z,98.70
2018-12-21T00:06:12.227Z,217.40
2018-12-21T00:09:16.659Z,138.13
2018-12-21T00:12:20.530Z,124.00
2018-12-21T00:15:24.846Z,120.03
2018-12-21T00:18:28.777Z,96.20
2018-12-21T00:21:33.011Z,133.30
2018-12-21T00:24:36.924Z,91.33
2018-12-21T00:27:41.271Z,88.30
2018-12-21T00:30:44.798Z,111.20
2018-12-21T00:33:54.243Z,89.73
2018-12-21T00:37:03.671Z,94.20
2018-12-21T00:40:13.029Z,117.83
2018-12-21T00:43:21.076Z,106.00
2018-12-21T00:46:28.466Z,91.90
2018-12-21T00:49:32.630Z,89.47
2018-12-21T00:52:36.606Z,94.63
2018-12-21T00:55:40.519Z,89.87
2018-12-21T00:58:44.387Z,87.90
2018-12-21T01:01:48.263Z,92.13
2018-12-21T01:04:52.649Z,86.43
2018-12-21T01:07:56.577Z,84.73
2018-12-21T01:11:00.462Z,83.27
2018-12-21T01:14:04.705Z,84.27
2018-12-21T01:17:08.990Z,88.00
2018-12-21T01:20:13.197Z,90.73
2018-12-21T01:23:17.470Z,73.00
2018-12-21T01:26:21.743Z,67.80
2018-12-21T01:29:25.968Z,80.07
2018-12-21T01:32:30.278Z,77.33
2018-12-21T01:35:34.508Z,81.53
2018-12-21T01:38:38.849Z,78.60
2018-12-21T01:41:43.255Z,79.40
2018-12-21T01:44:47.416Z,80.43
2018-12-21T01:47:51.800Z,76.63
2018-12-21T01:50:56.075Z,75.10
2018-12-21T01:54:00.081Z,73.47
2018-12-21T01:57:04.518Z,68.93
2018-12-21T02:00:09.065Z,71.87
2018-12-21T02:03:13.348Z,68.73
2018-12-21T02:06:17.539Z,69.50
2018-12-21T02:09:21.874Z,67.13
2018-12-21T02:12:26.312Z,73.57
2018-12-21T02:15:30.635Z,58.83
2018-12-21T02:18:35.012Z,62.73
2018-12-21T02:21:39.375Z,56.45
2018-12-21T02:24:43.703Z,66.67
2018-12-21T02:27:48.018Z,58.47
2018-12-21T02:30:52.317Z,52.80
2018-12-21T02:33:56.643Z,56.47
2018-12-21T02:37:01.012Z,59.50
2018-12-21T02:40:06.204Z,58.27
2018-12-21T02:43:10.449Z,54.43
2018-12-21T02:46:14.853Z,59.63
2018-12-21T02:49:19.224Z,59.80
2018-12-21T02:52:23.588Z,54.63
2018-12-21T02:55:27.978Z,56.57
2018-12-21T02:58:32.246Z,55.47
2018-12-21T03:01:36.523Z,52.70
2018-12-21T03:04:40.885Z,59.90
2018-12-21T03:07:51.597Z,53.37
2018-12-21T03:10:56.033Z,53.33
2018-12-21T03:14:00.113Z,58.57
2018-12-21T03:17:04.354Z,47.90
2018-12-21T03:20:08.716Z,53.93
2018-12-21T03:23:12.856Z,55.33
2018-12-21T03:26:17.685Z,56.23
2018-12-21T03:29:21.905Z,62.80
2018-12-21T03:32:26.294Z,58.30
2018-12-21T03:35:30.478Z,63.37
2018-12-21T03:38:35.115Z,68.37
2018-12-21T03:41:39.549Z,67.40
2018-12-21T03:44:43.891Z,73.87
2018-12-21T03:47:48.073Z,72.67
2018-12-21T03:50:52.285Z,81.30
2018-12-21T03:53:56.554Z,99.50
2018-12-21T03:57:00.827Z,63.63
2018-12-21T04:00:05.943Z,113.30
2018-12-21T04:03:10.523Z,70.23
2018-12-21T04:06:14.809Z,87.50
2018-12-21T04:09:19.174Z,67.40
2018-12-21T04:12:23.457Z,91.27
2018-12-21T04:15:27.960Z,67.20
2018-12-21T04:18:32.163Z,59.73
2018-12-21T04:21:36.661Z,78.67
2018-12-21T04:24:40.989Z,63.23
2018-12-21T04:27:45.306Z,60.30
2018-12-21T04:30:49.657Z,75.33
2018-12-21T04:33:54.146Z,70.50
2018-12-21T04:36:58.483Z,81.83
2018-12-21T04:40:02.867Z,95.33
2018-12-21T04:43:07.317Z,90.73
2018-12-21T04:46:11.762Z,85.83
2018-12-21T04:49:16.049Z,73.23
2018-12-21T04:52:20.506Z,70.83
2018-12-21T04:55:24.770Z,85.50
2018-12-21T04:58:29.211Z,105.83
2018-12-21T05:01:33.680Z,80.13
2018-12-21T05:04:37.980Z,84.90
2018-12-21T05:07:42.523Z,69.83
2018-12-21T05:10:46.791Z,72.30
2018-12-21T05:13:51.304Z,80.43
2018-12-21T05:16:55.540Z,68.77
2018-12-21T05:20:06.731Z,68.10
2018-12-21T05:23:10.947Z,81.13
2018-12-21T05:26:15.280Z,76.27
2018-12-21T05:29:19.582Z,82.23
2018-12-21T05:32:23.858Z,79.00
2018-12-21T05:35:28.030Z,72.33
2018-12-21T05:38:32.359Z,72.73
2018-12-21T05:41:36.832Z,72.33
2018-12-21T05:44:41.239Z,81.40
2018-12-21T05:47:45.740Z,73.17
2018-12-21T05:50:50.106Z,85.17
2018-12-21T05:53:54.547Z,74.30
2018-12-21T05:56:58.868Z,67.77
2018-12-21T06:00:03.308Z,79.07
2018-12-21T06:03:07.461Z,77.70
2018-12-21T06:06:11.833Z,66.43
2018-12-21T06:09:16.762Z,65.37
2018-12-21T06:12:21.266Z,64.30
2018-12-21T06:15:25.710Z,71.10
2018-12-21T06:18:30.117Z,65.60
2018-12-21T06:21:34.270Z,70.57
2018-12-21T06:24:38.649Z,61.87
2018-12-21T06:27:43.133Z,76.30
2018-12-21T06:30:47.446Z,62.67
2018-12-21T06:33:51.749Z,53.57
2018-12-21T06:36:56.040Z,64.53
2018-12-21T06:40:00.316Z,56.63
2018-12-21T06:43:05.987Z,66.80
2018-12-21T06:46:14.183Z,63.13
2018-12-21T06:49:16.624Z,68.47
2018-12-21T06:52:20.931Z,63.15
2018-12-21T06:55:25.157Z,59.33
2018-12-21T06:58:29.457Z,54.60
2018-12-21T07:01:34.948Z,58.20
2018-12-21T07:04:39.252Z,66.23
2018-12-21T07:07:43.479Z,61.47
2018-12-21T07:10:48.193Z,61.10
2018-12-21T07:13:52.367Z,56.83
2018-12-21T07:16:56.420Z,58.60
2018-12-21T07:20:00.804Z,65.17
2018-12-21T07:23:05.106Z,65.50
2018-12-21T07:26:09.627Z,67.13
2018-12-21T07:29:14.562Z,60.87
2018-12-21T07:32:18.849Z,65.93
2018-12-21T07:35:23.655Z,54.93
2018-12-21T07:38:27.934Z,63.40
2018-12-21T07:41:33.801Z,59.53
2018-12-21T07:44:38.086Z,65.10
2018-12-21T07:47:42.480Z,66.77
2018-12-21T07:50:46.836Z,59.50
2018-12-21T07:53:51.104Z,70.77
2018-12-21T07:56:55.259Z,68.47
2018-12-21T07:59:59.580Z,74.50
2018-12-21T08:03:04.073Z,70.80
2018-12-21T08:06:08.442Z,66.60
2018-12-21T08:09:12.781Z,64.03
2018-12-21T08:12:17.056Z,71.57
2018-12-21T08:15:21.221Z,60.70
2018-12-21T08:18:25.631Z,65.23
2018-12-21T08:21:29.461Z,66.33
2018-12-21T08:24:33.686Z,67.07
2018-12-21T08:27:37.901Z,59.80
2018-12-21T08:30:42.767Z,66.33
2018-12-21T08:33:47.272Z,71.90
2018-12-21T08:36:51.482Z,63.43
2018-12-21T08:39:55.653Z,64.83
2018-12-21T08:42:59.651Z,61.23
2018-12-21T08:46:03.841Z,65.40
2018-12-21T08:49:08.340Z,63.57
2018-12-21T08:52:12.644Z,63.07
2018-12-21T08:55:16.864Z,78.63
2018-12-21T08:58:20.767Z,58.63
2018-12-21T09:01:25.236Z,54.23
2018-12-21T09:04:32.279Z,60.57
2018-12-21T09:07:37.162Z,67.53
2018-12-21T09:10:41.252Z,62.73
2018-12-21T09:13:45.507Z,60.17
2018-12-21T09:16:49.697Z,52.27
2018-12-21T09:19:54.029Z,56.47
2018-12-21T09:22:58.476Z,64.10
2018-12-21T09:26:02.880Z,60.80
2018-12-21T09:29:07.187Z,57.80
2018-12-21T09:32:11.055Z,54.37
2018-12-21T09:35:15.629Z,65.40
2018-12-21T09:38:19.979Z,58.10
2018-12-21T09:41:25.245Z,57.13
2018-12-21T09:44:29.093Z,57.10
2018-12-21T09:47:33.636Z,57.43
2018-12-21T09:50:37.854Z,55.13
2018-12-21T09:53:41.765Z,53.73
2018-12-21T09:56:46.147Z,56.10
2018-12-21T09:59:50.447Z,57.40
2018-12-21T10:02:54.740Z,56.93
2018-12-21T10:05:59.084Z,50.77
2018-12-21T10:09:03.575Z,55.80
2018-12-21T10:12:07.864Z,57.90
2018-12-21T10:15:12.186Z,61.30
2018-12-21T10:18:16.605Z,50.63
2018-12-21T10:21:20.792Z,59.70
2018-12-21T10:24:24.979Z,60.17
2018-12-21T10:27:29.192Z,55.27
2018-12-21T10:30:33.432Z,58.67
2018-12-21T10:33:37.357Z,58.80
2018-12-21T10:36:41.695Z,58.57
2018-12-21T10:39:46.057Z,60.70
2018-12-21T10:42:50.342Z,55.43
2018-12-21T10:45:54.772Z,53.47
2018-12-21T10:48:59.085Z,56.70
2018-12-21T10:52:03.253Z,59.93
2018-12-21T10:55:08.015Z,57.90
2018-12-21T10:58:12.522Z,61.63
2018-12-21T11:01:16.784Z,62.10
2018-12-21T11:04:21.104Z,57.70
2018-12-21T11:07:25.452Z,60.73
2018-12-21T11:10:29.349Z,61.93
2018-12-21T11:13:33.253Z,57.30
2018-12-21T11:16:37.149Z,62.67
2018-12-21T11:19:44.543Z,61.10
2018-12-21T11:22:48.396Z,61.23
2018-12-21T11:25:52.826Z,61.60
2018-12-21T11:28:57.128Z,59.40
2018-12-21T11:32:01.348Z,59.40
2018-12-21T11:35:05.637Z,58.03
2018-12-21T11:38:10.134Z,59.93
2018-12-21T11:41:14.278Z,60.20
2018-12-21T11:44:18.746Z,62.00
2018-12-21T11:47:23.076Z,58.47
2018-12-21T11:50:27.290Z,67.67
2018-12-21T11:53:31.109Z,66.23
2018-12-21T11:56:35.062Z,64.97
2018-12-21T11:59:44.853Z,68.67
2018-12-21T12:02:44.818Z,60.97
2018-12-21T12:05:48.628Z,58.60
2018-12-21T12:08:52.603Z,63.27
2018-12-21T12:11:56.493Z,62.50
2018-12-21T12:15:00.537Z,63.63
2018-12-21T12:18:04.604Z,59.60
2018-12-21T12:21:08.476Z,59.20
2018-12-21T12:24:12.354Z,65.40
2018-12-21T12:27:16.652Z,67.70
2018-12-21T12:30:20.947Z,68.67
2018-12-21T12:33:25.272Z,64.27
2018-12-21T12:36:29.829Z,61.27
2018-12-21T12:39:33.835Z,70.40
2018-12-21T12:42:37.733Z,65.67
2018-12-21T12:45:41.614Z,60.53
2018-12-21T12:48:46.023Z,60.47
2018-12-21T12:51:50.277Z,62.60
2018-12-21T12:55:02.371Z,69.50
2018-12-21T12:58:00.446Z,57.20
2018-12-21T13:01:04.331Z,62.10
2018-12-21T13:04:14.467Z,58.03
2018-12-21T13:07:19.007Z,59.60
2018-12-21T13:10:23.159Z,60.70
2018-12-21T13:13:27.364Z,60.43
2018-12-21T13:16:31.320Z,57.33
2018-12-21T13:19:35.243Z,52.37
2018-12-21T13:22:39.162Z,57.57
2018-12-21T13:25:43.056Z,59.80
2018-12-21T13:28:47.059Z,49.17
2018-12-21T13:31:51.123Z,53.73
2018-12-21T13:34:55.015Z,52.93
2018-12-21T13:37:58.926Z,53.03
2018-12-21T13:41:02.867Z,55.40
2018-12-21T13:44:07.151Z,51.33
2018-12-21T13:47:11.455Z,54.80
2018-12-21T13:50:16.138Z,53.73
2018-12-21T13:53:20.119Z,46.07
2018-12-21T13:56:24.442Z,46.03
2018-12-21T13:59:28.376Z,53.47
2018-12-21T14:02:32.276Z,51.25
2018-12-21T14:05:36.162Z,54.53
2018-12-21T14:08:40.041Z,47.60
2018-12-21T14:11:44.118Z,54.00
2018-12-21T14:14:48.436Z,48.70
2018-12-21T14:17:52.669Z,48.57
2018-12-21T14:20:57.512Z,49.50
2018-12-21T14:24:01.410Z,43.80
2018-12-21T14:27:05.330Z,44.17
2018-12-21T14:30:10.225Z,41.13
2018-12-21T14:33:14.848Z,40.10
2018-12-21T14:36:20.882Z,45.10
2018-12-21T14:39:25.426Z,44.40
2018-12-21T14:42:29.784Z,47.50
2018-12-21T14:45:34.101Z,43.80
2018-12-21T14:48:38.549Z,37.97
2018-12-21T14:51:43.043Z,47.27
2018-12-21T14:54:48.249Z,36.50
2018-12-21T14:57:52.467Z,37.37
2018-12-21T15:00:56.890Z,40.70
2018-12-21T15:04:01.294Z,42.60
2018-12-21T15:07:05.658Z,43.47
2018-12-21T15:10:11.195Z,41.97
2018-12-21T15:13:15.557Z,44.60
2018-12-21T15:16:19.727Z,43.47
2018-12-21T15:19:24.003Z,43.00
2018-12-21T15:22:28.333Z,45.50
2018-12-21T15:25:32.562Z,53.00
2018-12-21T15:28:36.753Z,39.13
2018-12-21T15:31:40.907Z,46.47
2018-12-21T15:34:45.277Z,40.63
2018-12-21T15:37:49.869Z,46.00
2018-12-21T15:40:54.740Z,38.43
2018-12-21T15:43:59.080Z,41.97
2018-12-21T15:47:08.903Z,35.60
2018-12-21T15:50:11.916Z,36.27
2018-12-21T15:53:16.502Z,43.27
2018-12-21T15:56:20.868Z,43.53
2018-12-21T15:59:25.480Z,44.60
2018-12-21T16:02:30.476Z,41.40
2018-12-21T16:05:34.919Z,43.97
2018-12-21T16:08:39.322Z,42.17
2018-12-21T16:11:43.831Z,40.20
2018-12-21T16:14:48.308Z,39.20
2018-12-21T16:17:52.737Z,43.10
2018-12-21T16:20:57.092Z,39.23
2018-12-21T16:24:06.839Z,40.33
2018-12-21T16:27:07.702Z,39.87
2018-12-21T16:30:12.879Z,38.60
2018-12-21T16:33:17.066Z,42.10
2018-12-21T16:36:21.508Z,41.73
2018-12-21T16:39:25.864Z,41.50
2018-12-21T16:42:29.979Z,39.07
2018-12-21T16:45:34.170Z,38.20
2018-12-21T16:48:38.672Z,44.90
2018-12-21T16:51:42.851Z,44.47
2018-12-21T16:54:47.175Z,40.77
2018-12-21T16:57:51.868Z,60.37
2018-12-21T17:00:56.108Z,52.00
2018-12-21T17:04:00.284Z,56.03
2018-12-21T17:07:04.547Z,52.20
2018-12-21T17:10:18.785Z,46.47
2018-12-21T17:13:23.465Z,44.73
2018-12-21T17:16:27.727Z,47.33
2018-12-21T17:19:32.163Z,43.27
2018-12-21T17:22:36.429Z,46.10
2018-12-21T17:25:42.435Z,41.77
2018-12-21T17:28:47.619Z,37.33
2018-12-21T17:31:52.074Z,46.70
2018-12-21T17:34:56.329Z,43.27
2018-12-21T17:38:00.974Z,37.47
2018-12-21T17:41:06.599Z,38.90
2018-12-21T17:44:13.167Z,42.87
2018-12-21T17:47:17.557Z,43.13
2018-12-21T17:50:22.917Z,44.07
2018-12-21T17:53:28.239Z,46.33
2018-12-21T17:56:32.950Z,38.73
2018-12-21T17:59:37.223Z,51.73
2018-12-21T18:02:41.792Z,48.70
2018-12-21T18:05:46.484Z,43.13
2018-12-21T18:08:51.019Z,45.10
2018-12-21T18:11:57.330Z,54.23
2018-12-21T18:15:01.792Z,45.50
2018-12-21T18:18:05.977Z,54.00
2018-12-21T18:21:11.705Z,64.67
2018-12-21T18:24:15.969Z,57.57
2018-12-21T18:27:20.429Z,97.03
2018-12-21T18:30:28.504Z,71.00
2018-12-21T18:33:32.985Z,59.00
2018-12-21T18:36:37.448Z,60.50
2018-12-21T18:39:41.900Z,61.37
2018-12-21T18:42:46.860Z,54.03
2018-12-21T18:45:51.052Z,59.87
2018-12-21T18:48:55.031Z,58.57
2018-12-21T18:51:59.839Z,51.57
2018-12-21T18:55:04.448Z,56.70
2018-12-21T18:58:08.396Z,55.83
2018-12-21T19:01:12.309Z,60.07
2018-12-21T19:04:16.263Z,59.07
2018-12-21T19:07:23.342Z,61.30
2018-12-21T19:10:27.438Z,56.63
2018-12-21T19:13:31.462Z,58.97
2018-12-21T19:16:35.754Z,65.60
2018-12-21T19:19:43.618Z,66.80
2018-12-21T19:22:47.900Z,58.80
2018-12-21T19:25:52.442Z,162.63
2018-12-21T19:28:57.865Z,66.50
2018-12-21T19:32:02.113Z,58.50
2018-12-21T19:35:06.930Z,58.30
2018-12-21T19:38:11.300Z,59.90
2018-12-21T19:41:15.657Z,62.20
2018-12-21T19:44:20.444Z,55.33
2018-12-21T19:47:24.829Z,60.50
2018-12-21T19:50:29.320Z,60.37
2018-12-21T19:53:33.915Z,54.63
2018-12-21T19:56:55.103Z,52.00
2018-12-21T19:59:59.417Z,57.40
2018-12-21T20:03:03.711Z,55.40
2018-12-21T20:06:08.169Z,55.80
2018-12-21T20:09:12.526Z,51.03
2018-12-21T20:12:16.892Z,51.87
2018-12-21T20:15:22.853Z,47.43
2018-12-21T20:18:27.559Z,54.03
2018-12-21T20:21:34.725Z,62.10
2018-12-21T20:24:41.019Z,52.37
2018-12-21T20:27:47.108Z,56.50
2018-12-21T20:30:51.215Z,53.77
2018-12-21T20:33:55.485Z,49.90
2018-12-21T20:37:00.358Z,53.70
2018-12-21T20:40:04.959Z,51.90
2018-12-21T20:43:09.264Z,50.70
2018-12-21T20:46:13.770Z,51.20
2018-12-21T20:49:18.183Z,51.33
2018-12-21T20:52:22.671Z,47.93
2018-12-21T20:55:27.140Z,47.40
2018-12-21T20:58:56.295Z,45.80
2018-12-21T21:02:00.828Z,50.57
2018-12-21T21:05:05.315Z,44.67
2018-12-21T21:08:11.745Z,38.40
2018-12-21T21:11:24.079Z,39.43
2018-12-21T21:14:26.881Z,37.93
2018-12-21T21:17:31.857Z,39.37
2018-12-21T21:20:36.444Z,40.57
2018-12-21T21:23:40.940Z,43.13
2018-12-21T21:26:45.338Z,43.90
2018-12-21T21:29:49.645Z,47.43
2018-12-21T21:32:54.108Z,43.00
2018-12-21T21:35:58.499Z,44.77
2018-12-21T21:39:03.850Z,41.23
2018-12-21T21:42:08.341Z,43.80
2018-12-21T21:45:12.881Z,51.33
2018-12-21T21:48:17.006Z,59.43
2018-12-21T21:51:21.518Z,51.80
2018-12-21T21:54:26.017Z,59.33
2018-12-21T21:57:39.012Z,53.47
2018-12-21T22:00:36.726Z,48.57
2018-12-21T22:03:41.346Z,53.73
2018-12-21T22:06:45.498Z,55.73
2018-12-21T22:09:50.389Z,52.13
2018-12-21T22:12:54.744Z,48.17
2018-12-21T22:15:59.106Z,50.27
2018-12-21T22:19:03.340Z,53.50
2018-12-21T22:22:07.731Z,49.80
2018-12-21T22:25:12.021Z,47.57
2018-12-21T22:28:17.017Z,41.23
2018-12-21T22:31:21.611Z,43.47
2018-12-21T22:34:26.204Z,43.00
2018-12-21T22:37:30.657Z,48.07
2018-12-21T22:40:35.199Z,60.80
2018-12-21T22:43:39.699Z,59.37
2018-12-21T22:46:50.341Z,48.63
2018-12-21T22:49:54.537Z,42.87
2018-12-21T22:52:59.139Z,38.10
2018-12-21T22:56:03.427Z,37.50
2018-12-21T22:59:07.837Z,53.47
2018-12-21T23:02:12.218Z,41.07
2018-12-21T23:05:16.544Z,43.57
2018-12-21T23:08:20.869Z,42.80
2018-12-21T23:11:25.301Z,38.10
2018-12-21T23:14:29.658Z,42.97
2018-12-21T23:17:33.970Z,51.00
2018-12-21T23:20:38.346Z,44.60
2018-12-21T23:23:42.784Z,43.73
2018-12-21T23:26:47.000Z,40.57
2018-12-21T23:29:51.301Z,40.27
2018-12-21T23:32:55.673Z,35.20
2018-12-21T23:35:59.868Z,38.43
2018-12-21T23:39:04.845Z,45.07
2018-12-21T23:42:09.049Z,39.07
2018-12-21T23:45:13.489Z,37.90
2018-12-21T23:48:17.813Z,49.63
2018-12-21T23:51:22.153Z,36.07
2018-12-21T23:54:26.227Z,35.87
2018-12-21T23:57:30.542Z,35.73
